Logo AVAMET
Benvolgut visitant, si us plau, ingressa Recuperar contrasenya
AVAMET paisatges

Barx la Visteta

Dades diàries. Acumulats / Últims 30 dies disponibles

Data Temperatura (°C) Humitat rel. (%) Pressió rel. (hPa) Vent (km/h) Precipitació
Mínima Mitjana Màxima Amplitud
tèrmica
Mínima Mitjana Màxima Mínima Mitjana Màxima Predom. Mitjana Ràfega
màxima
Total
(mm)
Índex-n
Mínima Mitjana Màxima Mínima Mitjana Màxima n
0 a 1
P0 max
mm 5'
Dades mensuals acumulades fins l'últim dia disponible
03/2020 5,3 9,5 15,0 12,9 10,2 16,9 23,6 18,3 25 71 96 1.000 1.017 1.028   8,2 88,8 183,3
Dades anuals acumulades fins l'últim dia disponible
2020 2,1 8,0 15,0 12,0 9,9 16,6 23,9 21,8 23 72 98 1.000 1.023 1.035   7,7 88,8 550,2
Últims 30 dies disponibles
30-03-2020 6,7     10,7     15,7 9,0 55 74 93 1.012 1.013 1.014 NE 7,4 31,4 2,5
29-03-2020 6,6     14,6     21,2 14,6 34 57 80 1.013 1.016 1.014 S 10,5 42,5 0,0
26-03-2020 5,3     9,3     14,4 9,1 42 67 92 1.008 1.010 1.014 ENE 6,5 40,7 0,0
25-03-2020 6,7     7,5     10,2 3,5 77 85 93 1.015 1.017 1.018 ENE 3,1 37,0 21,1 0,56 1,40
24-03-2020 9,8     10,9     12,5 2,7 77 86 95 1.014 1.016 1.018 NE 19,8 59,2 30,3 0,78 2,50
23-03-2020 9,4     11,6     13,9 4,5 83 89 94 1.014 1.016 1.017 NE 9,5 55,5 5,1 0,35 0,70
22-03-2020 8,4     9,8     10,9 2,5 91 93 95 1.011 1.013 1.015 NE 3,6 18,5 82,0 0,67 7,40
21-03-2020 8,4     10,2     11,2 2,8 89 92 95 1.012 1.014 1.017 NNE 3,0 24,1 16,7 0,68 1,50
20-03-2020 10,7     11,5     13,6 2,9 76 85 93 1.017 1.018 1.020 NE 7,4 27,8 0,0
19-03-2020 10,5     11,4     12,9 2,4 84 90 95 1.020 1.022 1.025 NNE 4,1 22,2 0,0
18-03-2020 10,8     11,5     12,4 1,6 83 90 96 1.025 1.026 1.028 NE 8,3 35,1 0,0
17-03-2020 7,0     10,0     12,7 5,7 88 92 96 1.020 1.024 1.028 NE 6,6 44,4 20,1 0,49 1,30
16-03-2020 6,3     9,6     13,8 7,5 80 86 92 1.010 1.014 1.020 S 5,1 29,6 5,1
15-03-2020 10,0     13,3     17,8 7,8 68 81 93 1.013 1.017 1.020 SSO 4,0 22,2 0,0
14-03-2020 8,3     12,7     17,8 9,5 67 80 93 1.018 1.020 1.022 SE 5,1 22,2 0,4
13-03-2020 9,7     12,2     15,3 5,6 75 84 93 1.018 1.019 1.021 NNE 3,8 22,2 0,0
12-03-2020 10,3     15,5     20,8 10,5 55 73 90 1.016 1.019 1.022 SSE 4,8 12,9 0,0
11-03-2020 13,1     18,5     23,6 10,5 40 58 75 1.021 1.022 1.024 SSE 6,4 18,5 0,0
10-03-2020 7,6     16,2     23,1 15,5 34 53 72 1.022 1.024 1.026 SSO 6,2 20,4 0,0
09-03-2020 11,3     15,5     20,2 8,9 33 49 64 1.020 1.022 1.023 OSO 5,6 25,9 0,0
08-03-2020 9,6     15,8     22,7 13,1 25 45 64 1.020 1.023 1.025 SSO 7,6 24,1 0,0
07-03-2020 7,4     11,7     18,2 10,8 36 51 66 1.021 1.022 1.024 ONO 6,8 46,3 0,0
06-03-2020 9,8     12,7     16,2 6,4 31 47 63 1.013 1.015 1.021 ONO 11,8 51,8 0,0
05-03-2020 13,4     16,5     21,6 8,2 43 54 65 1.008 1.012 1.017 SO 12,5 53,6 0,0
04-03-2020 15,0     17,2     20,4 5,4 49 61 73 1.017 1.018 1.020 SO 11,8 40,7 0,0
03-03-2020 9,1     13,5     19,3 10,2 46 57 67 1.012 1.016 1.018 SO 11,4 51,8 0,0
02-03-2020 10,7     15,9     19,8 9,1 32 45 57 1.000 1.007 1.017 SO 21,6 88,8 0,0
01-03-2020 13,3     16,2     19,9 6,6 46 57 68 1.010 1.013 1.015 SO 14,2 64,8 0,0
29-02-2020 7,3     15,8     22,4 15,1 31 60 88 1.011 1.014 1.018 SSO 9,2 50,0 0,0
28-02-2020 9,3     15,7     20,3 11,0 36 62 87 1.018 1.020 1.022 S 6,8 27,8 0,0
Últims 13 mesos disponibles
02/2020 4,1 8,6 14,6 13,5 12,4 19,1 23,9 19,8 34 69 89 1.014 1.025 1.033 S 6,9 50,0 11,9
01/2020 2,1 6,1 13,3 9,7 9,9 14,0 18,7 16,6 57 77 96 1.015 1.025 1.033 S 7,9 85,1 355,0
12/2019 4,7 9,2 17,2 12,5 10,6 16,2 23,4 18,7 50 72 94 1.002 1.018 1.033 S 9,8 85,1 388,0
11/2019 4,4 10,3 19,2 13,6 12,8 17,4 24,7 20,3 48 61 78 999 1.011 1.019 SO 10,2 74,0 14,4
10/2019 9,9 14,1 18,3 18,5 14,2 23,3 32,0 22,1 43 70 91 1.008 1.016 1.022 S 5,3 42,5 53,9
09/2019 12,2 17,9 22,2 22,0 20,1 26,1 33,1 20,9 48 76 98 1.009 1.017 1.024 SSE 6,7 75,8 167,3
08/2019 16,6 19,8 24,1 25,0 25,9 30,8 39,7 23,1 45 70 84 1.010 1.015 1.020 SSE 5,6 44,4 31,8
07/2019 17,0 19,8 24,6 25,4 25,8 31,0 36,8 19,8 51 65 84 1.006 1.014 1.021 NE 6,0 42,5 0,2
06/2019 11,6 13,8 16,5 19,3 20,5 25,2 28,5 16,9 25 38 42 1.010 1.016 1.022 S 7,0 44,4 1,2
05/2019 7,8 12,4 19,9 17,3 15,8 22,2 29,8 22,0 16 38 55 1.006 1.016 1.024 S 6,9 44,4 11,1
04/2019 6,9 10,2 13,6 13,7 12,1 17,8 26,4 19,5 13 40 85 1.001 1.013 1.025 SSO 9,2 61,0 342,2
03/2019 3,0 7,7 15,4 12,8 12,1 18,0 25,3 22,3 16 43 86 1.010 1.022 1.029 S 7,9 53,6 77,0
Tots els anys disponibles
2019 3,0 13,8 24,6 18,1 10,6 23,1 39,7 36,7 13 58 98 999 1.016 1.029 S 7,2 75,8 1.086,7
Temperatura (°C)
Humitat relativa (%)
Velocitat del vent i ràfega màxima (km/h)
Direcció del vent (°)
Pressió (hPa)
Precipitació (mm)
Nota sobre les dades: s'avisa a l'usuari de la provisionalitat i no oficialitat d'aquestes dades
Logo AVAMET blanc
Web allotjada a Sollutia
Llicència de Creative CommonsLa web d'AVAMET i els seus continguts estan subjectes a una llicència de
Reconeixement - No Comercial - Compartir igual
Últimes estacions:  Altea - Com. Regants (Soci), Almoines (Inforatge), Beniparrell (Inforatge), Albal (Inforatge), Almussafes - Parc Industrial (Inforatge), La Vilavella (Soci), la Serratella (soci) - - -